LiveATC.Net - Listen to live air traffic control over the Internet!


ICAO: KHOU  IATA: HOU   Airport: William P Hobby Airport
City: Houston   State/Province: Texas
Country: United States   Continent: North America
KHOU METAR Weather: KHOU 182253Z 33020G25KT 10SM SCT050 BKN075 26/09 A2990 RMK AO2 PK WND 33031/2214 WSHFT 2206 SLP130 T02610094
KHOU Flight Activity (FlightAware)
KHOU Airport Info   (AirNav) (iFlightPlanner)
KHOU VFR Sectional Chart   (iFlightPlanner) 
KHOU IFR Low Chart   (iFlightPlanner) 
KHOU Gnd/Twr/App
Feed Status: DOWN
Last heard on: 2017-11-17 23:22:03 (0 days 23 hours 47 minutes ago)
KHOU Gnd/Twr/App Audio Archives
FacilityFrequency
Hobby Approach (Final)133.050
Hobby Ground121.900
Hobby Tower118.700


NOTICE

Unauthorized use prohibited. See LiveATC.net Terms of Service


Find LiveATC Audio Streams


Airport/ARTCC Code

Frequency Search
(e.g., 124.400, 128.75)
Site-wide search
 


Browse LiveATC Feeds
LiveATC Coverage Map
Top 50 LiveATC Feeds
Bad Weather Areas

LiveATC FAQ
Offer a LiveATC Feed
Contact LiveATC.net
Press Inquiries

LiveATC on iPhone
LiveATC on Android

Windows Phone
Windows 8/10

LiveATC Mobile
(Mobile browser)

ATC Audio Archives
Interesting Recordings

LiveATC Forums


Home Page
About LiveATC.net
Make a Donation
Terms of Use
Privacy Policy

Canadian Air Freqs

AIRMETs/SIGMETs

FAA Airport Status
Nat'l Airspace Status
Arrival Demand Charts


Server Software By:
Icecast.org
Liquidsoap